aviador You're here:

KDVP Decoded Metar

SLAYTON in MN, USA
Report Time2017-04-25 20:01:00
UTC Time2017-04-25 20:17:25
Flight Rules lifr LIFR
Wind350° at 17 kt
W.Decomp.*RWY 35: 17.0 kt HW 1.2 kt LCW
W.Rank350° ranks 14
Current wind is above 350° avg. (11.3)
Visibility9999 m
Phenomena:Light Rain
Clouds:Overcast 003 Hf
Ceiling300 ft
Temp03°C (ISA -9)
Dew Point03°C (100% RH)
AAT-4.6°C
QNH1002 hPa
Density Alt1,050 ft
Elevation1,624 ft
Report Wrong Elevation
Raw Report
METAR KDVP 252001Z AUTO 35017KT 7SM -RA OVC003 03/03 A2958 RMK AO2
T00300029=

Extra information for KDVP:More info

Metar Taf Metar & Taf Last 4 Metars F.Rules Stats Wind Profile Meteogram Temp Stats Airport Information Weather charts Add Link Nearby VenuesMetar ALERT Operation Metar Decoded Social comments

AIRNAV info for KDVP